RKSO

Osan Air Base

Airport
ICAO code
RKSO
IATA Code
OSN
Summary
ICAO Region
APAC
ICAO Territory
Location

, Kyonggi-do

Serving
Osan
Elevation
38 ft
Coordinates
37° 5' 26" N , 127° 1' 47" E
Metar
RKSO 171255Z 29003KT 7SM CLR 22/12 A2976 RMK AO2A SLP078 T02180121 $

Runways

Designator Length Width Surface Rops
9/27 2744 46 CON Yes/Yes

Airport map

Aerial View

SKYbrary Partners:

Safety knowledge contributed by: